sensor_id;sensor_type;location;lat;lon;timestamp;temperature;humidity
56268;DHT22;42175;46.930;9.532;2022-09-13T00:00:37;22.90;54.10
56268;DHT22;42175;46.930;9.532;2022-09-13T00:03:03;22.90;54.10
56268;DHT22;42175;46.930;9.532;2022-09-13T00:05:29;22.90;54.10
56268;DHT22;42175;46.930;9.532;2022-09-13T00:07:55;22.90;54.20
56268;DHT22;42175;46.930;9.532;2022-09-13T00:10:21;22.90;54.20
56268;DHT22;42175;46.930;9.532;2022-09-13T00:12:47;22.90;54.20
56268;DHT22;42175;46.930;9.532;2022-09-13T00:15:13;22.90;54.10
56268;DHT22;42175;46.930;9.532;2022-09-13T00:17:39;22.90;54.20
56268;DHT22;42175;46.930;9.532;2022-09-13T00:20:06;22.90;54.20
56268;DHT22;42175;46.930;9.532;2022-09-13T00:22:33;22.90;54.20
56268;DHT22;42175;46.930;9.532;2022-09-13T00:24:59;22.90;54.10
56268;DHT22;42175;46.930;9.532;2022-09-13T00:27:25;22.90;54.10
56268;DHT22;42175;46.930;9.532;2022-09-13T00:29:51;22.90;54.10
56268;DHT22;42175;46.930;9.532;2022-09-13T00:32:17;22.80;54.00
56268;DHT22;42175;46.930;9.532;2022-09-13T00:34:42;22.80;53.90
56268;DHT22;42175;46.930;9.532;2022-09-13T00:37:08;22.80;53.80
56268;DHT22;42175;46.930;9.532;2022-09-13T00:39:34;22.80;53.90
56268;DHT22;42175;46.930;9.532;2022-09-13T00:42:00;22.80;53.80
56268;DHT22;42175;46.930;9.532;2022-09-13T00:44:56;22.80;53.80
56268;DHT22;42175;46.930;9.532;2022-09-13T00:53:10;22.80;54.00
56268;DHT22;42175;46.930;9.532;2022-09-13T00:55:43;22.80;54.10
56268;DHT22;42175;46.930;9.532;2022-09-13T00:58:22;22.80;54.10
56268;DHT22;42175;46.930;9.532;2022-09-13T01:00:49;22.80;54.10
56268;DHT22;42175;46.930;9.532;2022-09-13T01:03:18;22.80;54.10
56268;DHT22;42175;46.930;9.532;2022-09-13T01:05:49;22.80;54.10
56268;DHT22;42175;46.930;9.532;2022-09-13T01:08:16;22.80;54.10
56268;DHT22;42175;46.930;9.532;2022-09-13T01:10:51;22.80;53.90
56268;DHT22;42175;46.930;9.532;2022-09-13T01:13:19;22.80;53.80
56268;DHT22;42175;46.930;9.532;2022-09-13T01:15:46;22.80;53.70
56268;DHT22;42175;46.930;9.532;2022-09-13T01:18:13;22.80;53.60
56268;DHT22;42175;46.930;9.532;2022-09-13T01:29:20;22.80;53.90
56268;DHT22;42175;46.930;9.532;2022-09-13T01:37:32;22.80;53.80
56268;DHT22;42175;46.930;9.532;2022-09-13T01:47:59;22.80;53.60
56268;DHT22;42175;46.930;9.532;2022-09-13T01:50:46;22.80;53.70
56268;DHT22;42175;46.930;9.532;2022-09-13T01:56:30;22.80;53.50
56268;DHT22;42175;46.930;9.532;2022-09-13T01:59:10;22.80;53.50
56268;DHT22;42175;46.930;9.532;2022-09-13T02:01:47;22.80;53.50
56268;DHT22;42175;46.930;9.532;2022-09-13T02:04:21;22.80;53.60
56268;DHT22;42175;46.930;9.532;2022-09-13T02:06:53;22.80;53.60
56268;DHT22;42175;46.930;9.532;2022-09-13T02:09:25;22.80;53.60
56268;DHT22;42175;46.930;9.532;2022-09-13T02:12:09;22.80;53.40
56268;DHT22;42175;46.930;9.532;2022-09-13T02:14:42;22.80;53.40
56268;DHT22;42175;46.930;9.532;2022-09-13T02:17:15;22.80;53.40
56268;DHT22;42175;46.930;9.532;2022-09-13T02:19:54;22.80;53.50
56268;DHT22;42175;46.930;9.532;2022-09-13T02:22:26;22.80;53.40
56268;DHT22;42175;46.930;9.532;2022-09-13T02:25:09;22.80;53.40
56268;DHT22;42175;46.930;9.532;2022-09-13T02:27:38;22.80;53.50
56268;DHT22;42175;46.930;9.532;2022-09-13T02:30:08;22.80;53.50
56268;DHT22;42175;46.930;9.532;2022-09-13T02:35:12;22.70;53.30
56268;DHT22;42175;46.930;9.532;2022-09-13T02:41:08;22.80;53.30
56268;DHT22;42175;46.930;9.532;2022-09-13T02:43:43;22.70;53.20
56268;DHT22;42175;46.930;9.532;2022-09-13T02:49:29;22.70;53.30
56268;DHT22;42175;46.930;9.532;2022-09-13T02:52:18;22.80;53.40
56268;DHT22;42175;46.930;9.532;2022-09-13T03:00:29;22.70;53.50
56268;DHT22;42175;46.930;9.532;2022-09-13T03:03:00;22.70;53.40
56268;DHT22;42175;46.930;9.532;2022-09-13T03:05:27;22.70;53.40
56268;DHT22;42175;46.930;9.532;2022-09-13T03:07:53;22.70;53.40
56268;DHT22;42175;46.930;9.532;2022-09-13T03:10:20;22.70;53.40
56268;DHT22;42175;46.930;9.532;2022-09-13T03:13:15;22.70;53.40
56268;DHT22;42175;46.930;9.532;2022-09-13T03:16:05;22.70;53.50
56268;DHT22;42175;46.930;9.532;2022-09-13T03:24:22;22.70;53.40
56268;DHT22;42175;46.930;9.532;2022-09-13T03:26:58;22.70;53.30
56268;DHT22;42175;46.930;9.532;2022-09-13T03:29:38;22.70;53.40
56268;DHT22;42175;46.930;9.532;2022-09-13T03:34:57;22.70;53.40
56268;DHT22;42175;46.930;9.532;2022-09-13T03:37:34;22.70;53.40
56268;DHT22;42175;46.930;9.532;2022-09-13T03:40:13;22.70;53.30
56268;DHT22;42175;46.930;9.532;2022-09-13T03:42:51;22.70;53.30
56268;DHT22;42175;46.930;9.532;2022-09-13T03:45:23;22.70;53.10
56268;DHT22;42175;46.930;9.532;2022-09-13T03:47:51;22.70;53.20
56268;DHT22;42175;46.930;9.532;2022-09-13T03:50:21;22.70;53.20
56268;DHT22;42175;46.930;9.532;2022-09-13T03:52:51;22.70;53.30
56268;DHT22;42175;46.930;9.532;2022-09-13T03:55:20;22.70;53.40
56268;DHT22;42175;46.930;9.532;2022-09-13T03:57:46;22.70;53.10
56268;DHT22;42175;46.930;9.532;2022-09-13T04:00:13;22.70;53.20
56268;DHT22;42175;46.930;9.532;2022-09-13T04:02:39;22.70;53.20
56268;DHT22;42175;46.930;9.532;2022-09-13T04:05:05;22.70;53.30
56268;DHT22;42175;46.930;9.532;2022-09-13T04:07:32;22.70;53.30
56268;DHT22;42175;46.930;9.532;2022-09-13T04:09:57;22.60;53.20
56268;DHT22;42175;46.930;9.532;2022-09-13T04:12:24;22.70;53.20
56268;DHT22;42175;46.930;9.532;2022-09-13T04:14:49;22.70;53.30
56268;DHT22;42175;46.930;9.532;2022-09-13T04:17:16;22.70;53.30
56268;DHT22;42175;46.930;9.532;2022-09-13T04:19:43;22.70;53.30
56268;DHT22;42175;46.930;9.532;2022-09-13T04:22:12;22.70;53.30
56268;DHT22;42175;46.930;9.532;2022-09-13T04:24:38;22.60;53.30
56268;DHT22;42175;46.930;9.532;2022-09-13T04:27:05;22.60;53.20
56268;DHT22;42175;46.930;9.532;2022-09-13T04:29:31;22.70;53.30
56268;DHT22;42175;46.930;9.532;2022-09-13T04:31:58;22.60;53.30
56268;DHT22;42175;46.930;9.532;2022-09-13T04:34:24;22.60;53.20
56268;DHT22;42175;46.930;9.532;2022-09-13T04:36:51;22.60;53.40
56268;DHT22;42175;46.930;9.532;2022-09-13T04:39:18;22.70;53.40
56268;DHT22;42175;46.930;9.532;2022-09-13T04:41:45;22.70;53.40
56268;DHT22;42175;46.930;9.532;2022-09-13T04:44:14;22.60;53.10
56268;DHT22;42175;46.930;9.532;2022-09-13T04:46:40;22.60;53.20
56268;DHT22;42175;46.930;9.532;2022-09-13T04:49:09;22.60;53.10
56268;DHT22;42175;46.930;9.532;2022-09-13T04:51:35;22.60;53.00
56268;DHT22;42175;46.930;9.532;2022-09-13T04:54:00;22.60;53.00
56268;DHT22;42175;46.930;9.532;2022-09-13T04:56:26;22.60;53.10
56268;DHT22;42175;46.930;9.532;2022-09-13T04:58:55;22.60;53.10
56268;DHT22;42175;46.930;9.532;2022-09-13T05:01:22;22.60;53.10
56268;DHT22;42175;46.930;9.532;2022-09-13T05:03:50;22.60;53.10
56268;DHT22;42175;46.930;9.532;2022-09-13T05:06:17;22.60;52.80
56268;DHT22;42175;46.930;9.532;2022-09-13T05:08:44;22.60;53.00
56268;DHT22;42175;46.930;9.532;2022-09-13T05:11:13;22.60;53.10
56268;DHT22;42175;46.930;9.532;2022-09-13T05:13:39;22.60;52.90
56268;DHT22;42175;46.930;9.532;2022-09-13T05:16:06;22.60;52.90
56268;DHT22;42175;46.930;9.532;2022-09-13T05:18:34;22.60;53.00
56268;DHT22;42175;46.930;9.532;2022-09-13T05:21:02;22.60;53.00
56268;DHT22;42175;46.930;9.532;2022-09-13T05:23:29;22.60;53.00
56268;DHT22;42175;46.930;9.532;2022-09-13T05:25:56;22.60;52.90
56268;DHT22;42175;46.930;9.532;2022-09-13T05:28:23;22.60;53.00
56268;DHT22;42175;46.930;9.532;2022-09-13T05:31:32;22.60;53.00
56268;DHT22;42175;46.930;9.532;2022-09-13T05:34:16;22.60;53.10
56268;DHT22;42175;46.930;9.532;2022-09-13T05:36:42;22.60;53.10
56268;DHT22;42175;46.930;9.532;2022-09-13T05:39:14;22.60;53.00
56268;DHT22;42175;46.930;9.532;2022-09-13T05:41:42;22.60;53.00
56268;DHT22;42175;46.930;9.532;2022-09-13T05:44:08;22.60;53.10
56268;DHT22;42175;46.930;9.532;2022-09-13T05:46:34;22.60;53.20
56268;DHT22;42175;46.930;9.532;2022-09-13T05:49:00;22.60;53.20
56268;DHT22;42175;46.930;9.532;2022-09-13T05:51:26;22.60;53.30
56268;DHT22;42175;46.930;9.532;2022-09-13T05:53:53;22.60;53.30
56268;DHT22;42175;46.930;9.532;2022-09-13T05:56:20;22.70;52.70
56268;DHT22;42175;46.930;9.532;2022-09-13T05:58:47;21.40;50.70
56268;DHT22;42175;46.930;9.532;2022-09-13T06:01:16;20.60;51.70
56268;DHT22;42175;46.930;9.532;2022-09-13T06:03:42;19.90;52.50
56268;DHT22;42175;46.930;9.532;2022-09-13T06:06:09;19.90;53.20
56268;DHT22;42175;46.930;9.532;2022-09-13T06:08:35;19.70;54.30
56268;DHT22;42175;46.930;9.532;2022-09-13T06:11:07;19.60;54.20
56268;DHT22;42175;46.930;9.532;2022-09-13T06:13:33;20.00;54.80
56268;DHT22;42175;46.930;9.532;2022-09-13T06:16:01;20.80;53.40
56268;DHT22;42175;46.930;9.532;2022-09-13T06:18:27;21.40;53.60
56268;DHT22;42175;46.930;9.532;2022-09-13T06:21:01;21.70;52.50
56268;DHT22;42175;46.930;9.532;2022-09-13T06:23:28;22.00;52.40
56268;DHT22;42175;46.930;9.532;2022-09-13T06:26:08;22.10;52.10
56268;DHT22;42175;46.930;9.532;2022-09-13T06:28:35;22.20;52.10
56268;DHT22;42175;46.930;9.532;2022-09-13T06:31:13;22.30;52.10
56268;DHT22;42175;46.930;9.532;2022-09-13T06:33:40;22.30;52.00
56268;DHT22;42175;46.930;9.532;2022-09-13T06:36:12;22.40;52.00
56268;DHT22;42175;46.930;9.532;2022-09-13T06:38:43;22.50;52.10
56268;DHT22;42175;46.930;9.532;2022-09-13T06:41:12;22.50;52.10
56268;DHT22;42175;46.930;9.532;2022-09-13T06:43:39;22.50;52.10
56268;DHT22;42175;46.930;9.532;2022-09-13T06:46:13;22.60;52.10
56268;DHT22;42175;46.930;9.532;2022-09-13T06:48:42;22.60;52.40
56268;DHT22;42175;46.930;9.532;2022-09-13T06:51:11;22.60;52.20
56268;DHT22;42175;46.930;9.532;2022-09-13T06:53:38;22.60;52.40
56268;DHT22;42175;46.930;9.532;2022-09-13T06:56:11;22.60;52.40
56268;DHT22;42175;46.930;9.532;2022-09-13T06:58:39;22.60;52.30
56268;DHT22;42175;46.930;9.532;2022-09-13T07:03:34;22.70;52.30
56268;DHT22;42175;46.930;9.532;2022-09-13T07:05:59;22.70;52.30
56268;DHT22;42175;46.930;9.532;2022-09-13T07:08:25;22.70;52.90
56268;DHT22;42175;46.930;9.532;2022-09-13T07:10:56;22.80;52.40
56268;DHT22;42175;46.930;9.532;2022-09-13T07:13:22;22.80;52.30
56268;DHT22;42175;46.930;9.532;2022-09-13T07:15:48;22.80;52.30
56268;DHT22;42175;46.930;9.532;2022-09-13T07:18:14;22.80;52.30
56268;DHT22;42175;46.930;9.532;2022-09-13T07:20:39;22.90;52.40
56268;DHT22;42175;46.930;9.532;2022-09-13T07:23:05;22.90;53.00
56268;DHT22;42175;46.930;9.532;2022-09-13T07:25:31;22.90;52.40
56268;DHT22;42175;46.930;9.532;2022-09-13T07:27:56;22.90;52.50
56268;DHT22;42175;46.930;9.532;2022-09-13T07:30:22;22.90;52.50
56268;DHT22;42175;46.930;9.532;2022-09-13T07:32:50;22.90;52.60
56268;DHT22;42175;46.930;9.532;2022-09-13T07:35:16;23.00;52.60
56268;DHT22;42175;46.930;9.532;2022-09-13T07:37:41;23.00;52.60
56268;DHT22;42175;46.930;9.532;2022-09-13T07:40:10;23.00;52.50
56268;DHT22;42175;46.930;9.532;2022-09-13T07:42:35;23.00;52.50
56268;DHT22;42175;46.930;9.532;2022-09-13T07:45:01;23.00;52.50
56268;DHT22;42175;46.930;9.532;2022-09-13T07:47:27;23.00;52.60
56268;DHT22;42175;46.930;9.532;2022-09-13T07:49:52;23.00;52.60
56268;DHT22;42175;46.930;9.532;2022-09-13T07:52:18;23.00;52.60
56268;DHT22;42175;46.930;9.532;2022-09-13T07:54:44;23.00;52.70
56268;DHT22;42175;46.930;9.532;2022-09-13T07:57:09;23.00;52.70
56268;DHT22;42175;46.930;9.532;2022-09-13T07:59:35;23.00;52.60
56268;DHT22;42175;46.930;9.532;2022-09-13T08:02:03;23.00;52.60
56268;DHT22;42175;46.930;9.532;2022-09-13T08:04:29;23.10;52.70
56268;DHT22;42175;46.930;9.532;2022-09-13T08:07:10;23.10;52.70
56268;DHT22;42175;46.930;9.532;2022-09-13T08:09:35;23.10;52.70
56268;DHT22;42175;46.930;9.532;2022-09-13T08:12:01;23.10;52.70
56268;DHT22;42175;46.930;9.532;2022-09-13T08:14:27;23.10;52.70
56268;DHT22;42175;46.930;9.532;2022-09-13T08:16:56;23.10;52.70
56268;DHT22;42175;46.930;9.532;2022-09-13T08:19:22;23.20;52.70
56268;DHT22;42175;46.930;9.532;2022-09-13T08:21:47;23.10;52.70
56268;DHT22;42175;46.930;9.532;2022-09-13T08:24:16;23.10;52.70
56268;DHT22;42175;46.930;9.532;2022-09-13T08:26:43;23.20;52.80
56268;DHT22;42175;46.930;9.532;2022-09-13T08:29:11;23.10;52.80
56268;DHT22;42175;46.930;9.532;2022-09-13T08:31:37;23.20;52.80
56268;DHT22;42175;46.930;9.532;2022-09-13T08:34:02;23.10;52.70
56268;DHT22;42175;46.930;9.532;2022-09-13T08:36:29;23.20;52.80
56268;DHT22;42175;46.930;9.532;2022-09-13T08:38:57;23.20;52.70
56268;DHT22;42175;46.930;9.532;2022-09-13T08:44:25;23.20;52.70
56268;DHT22;42175;46.930;9.532;2022-09-13T08:49:43;23.20;52.70
56268;DHT22;42175;46.930;9.532;2022-09-13T08:52:29;23.20;52.80
56268;DHT22;42175;46.930;9.532;2022-09-13T08:55:01;23.20;52.70
56268;DHT22;42175;46.930;9.532;2022-09-13T08:57:54;23.30;52.80
56268;DHT22;42175;46.930;9.532;2022-09-13T09:00:37;23.20;52.70
56268;DHT22;42175;46.930;9.532;2022-09-13T09:05:57;23.30;52.80
56268;DHT22;42175;46.930;9.532;2022-09-13T09:08:31;23.30;52.70
56268;DHT22;42175;46.930;9.532;2022-09-13T09:11:04;23.30;52.80
56268;DHT22;42175;46.930;9.532;2022-09-13T09:16:37;23.40;52.70
56268;DHT22;42175;46.930;9.532;2022-09-13T09:22:33;23.30;52.50
56268;DHT22;42175;46.930;9.532;2022-09-13T09:25:01;23.30;52.60
56268;DHT22;42175;46.930;9.532;2022-09-13T09:27:29;23.30;52.70
56268;DHT22;42175;46.930;9.532;2022-09-13T09:29:56;23.40;52.80
56268;DHT22;42175;46.930;9.532;2022-09-13T09:40:47;23.40;52.80
56268;DHT22;42175;46.930;9.532;2022-09-13T09:43:26;23.40;52.80
56268;DHT22;42175;46.930;9.532;2022-09-13T09:45:56;23.40;52.80
56268;DHT22;42175;46.930;9.532;2022-09-13T09:48:26;23.40;52.80
56268;DHT22;42175;46.930;9.532;2022-09-13T09:50:56;23.40;52.90
56268;DHT22;42175;46.930;9.532;2022-09-13T09:53:27;23.40;52.80
56268;DHT22;42175;46.930;9.532;2022-09-13T09:56:04;23.40;52.80
56268;DHT22;42175;46.930;9.532;2022-09-13T10:01:04;23.50;52.90
56268;DHT22;42175;46.930;9.532;2022-09-13T10:03:32;23.50;52.80
56268;DHT22;42175;46.930;9.532;2022-09-13T10:06:08;23.50;53.00
56268;DHT22;42175;46.930;9.532;2022-09-13T10:08:37;23.50;52.90
56268;DHT22;42175;46.930;9.532;2022-09-13T10:11:05;23.50;53.00
56268;DHT22;42175;46.930;9.532;2022-09-13T10:13:31;23.50;52.90
56268;DHT22;42175;46.930;9.532;2022-09-13T10:16:26;23.50;52.90
56268;DHT22;42175;46.930;9.532;2022-09-13T10:18:53;23.50;52.80
56268;DHT22;42175;46.930;9.532;2022-09-13T10:21:24;23.50;52.90
56268;DHT22;42175;46.930;9.532;2022-09-13T10:23:51;23.50;52.80
56268;DHT22;42175;46.930;9.532;2022-09-13T10:26:32;23.50;52.70
56268;DHT22;42175;46.930;9.532;2022-09-13T10:29:09;23.50;52.90
56268;DHT22;42175;46.930;9.532;2022-09-13T10:31:43;23.50;52.80
56268;DHT22;42175;46.930;9.532;2022-09-13T10:34:22;23.50;52.70
56268;DHT22;42175;46.930;9.532;2022-09-13T10:42:27;23.60;52.80
56268;DHT22;42175;46.930;9.532;2022-09-13T10:45:04;23.60;52.90
56268;DHT22;42175;46.930;9.532;2022-09-13T10:47:38;23.60;52.90
56268;DHT22;42175;46.930;9.532;2022-09-13T10:50:23;23.60;52.80
56268;DHT22;42175;46.930;9.532;2022-09-13T10:52:52;23.60;52.90
56268;DHT22;42175;46.930;9.532;2022-09-13T10:57:47;23.60;52.80
56268;DHT22;42175;46.930;9.532;2022-09-13T11:00:20;23.60;52.80
56268;DHT22;42175;46.930;9.532;2022-09-13T11:06:15;23.60;52.70
56268;DHT22;42175;46.930;9.532;2022-09-13T11:09:09;23.60;52.80
56268;DHT22;42175;46.930;9.532;2022-09-13T11:14:41;23.60;52.90
56268;DHT22;42175;46.930;9.532;2022-09-13T11:17:25;23.60;52.90
56268;DHT22;42175;46.930;9.532;2022-09-13T11:20:19;23.60;53.00
56268;DHT22;42175;46.930;9.532;2022-09-13T11:25:56;23.60;53.00
56268;DHT22;42175;46.930;9.532;2022-09-13T11:31:27;23.60;53.10
56268;DHT22;42175;46.930;9.532;2022-09-13T11:34:12;23.60;53.10
56268;DHT22;42175;46.930;9.532;2022-09-13T11:45:24;23.60;53.20
56268;DHT22;42175;46.930;9.532;2022-09-13T11:56:14;23.60;53.30
56268;DHT22;42175;46.930;9.532;2022-09-13T11:58:47;23.60;53.30
56268;DHT22;42175;46.930;9.532;2022-09-13T12:01:22;23.60;53.30
56268;DHT22;42175;46.930;9.532;2022-09-13T12:06:24;23.60;53.30
56268;DHT22;42175;46.930;9.532;2022-09-13T12:09:16;23.70;53.40
56268;DHT22;42175;46.930;9.532;2022-09-13T12:12:02;23.60;53.40
56268;DHT22;42175;46.930;9.532;2022-09-13T12:14:37;23.60;53.40
56268;DHT22;42175;46.930;9.532;2022-09-13T12:17:34;23.60;54.10
56268;DHT22;42175;46.930;9.532;2022-09-13T12:20:00;23.60;53.50
56268;DHT22;42175;46.930;9.532;2022-09-13T12:22:31;23.60;53.50
56268;DHT22;42175;46.930;9.532;2022-09-13T12:25:05;23.60;53.60
56268;DHT22;42175;46.930;9.532;2022-09-13T12:27:55;23.60;53.60
56268;DHT22;42175;46.930;9.532;2022-09-13T12:30:50;23.70;53.70
56268;DHT22;42175;46.930;9.532;2022-09-13T12:33:14;23.70;53.70
56268;DHT22;42175;46.930;9.532;2022-09-13T12:39:05;23.60;53.60
56268;DHT22;42175;46.930;9.532;2022-09-13T12:50:25;23.60;53.70
56268;DHT22;42175;46.930;9.532;2022-09-13T13:01:20;23.70;54.20
56268;DHT22;42175;46.930;9.532;2022-09-13T13:06:28;23.70;54.40
56268;DHT22;42175;46.930;9.532;2022-09-13T13:08:58;23.70;54.50
56268;DHT22;42175;46.930;9.532;2022-09-13T13:11:29;23.70;54.60
56268;DHT22;42175;46.930;9.532;2022-09-13T13:14:05;23.70;54.60
56268;DHT22;42175;46.930;9.532;2022-09-13T13:16:36;23.70;54.70
56268;DHT22;42175;46.930;9.532;2022-09-13T13:19:32;23.70;54.90
56268;DHT22;42175;46.930;9.532;2022-09-13T13:27:55;23.70;55.10
56268;DHT22;42175;46.930;9.532;2022-09-13T13:30:40;23.70;55.40
56268;DHT22;42175;46.930;9.532;2022-09-13T13:33:27;23.70;55.40
56268;DHT22;42175;46.930;9.532;2022-09-13T13:35:54;23.70;55.40
56268;DHT22;42175;46.930;9.532;2022-09-13T13:38:36;23.70;55.60
56268;DHT22;42175;46.930;9.532;2022-09-13T13:41:35;23.70;55.50
56268;DHT22;42175;46.930;9.532;2022-09-13T13:43:54;23.70;55.70
56268;DHT22;42175;46.930;9.532;2022-09-13T13:46:30;23.70;55.80
56268;DHT22;42175;46.930;9.532;2022-09-13T13:55:03;23.80;56.10
56268;DHT22;42175;46.930;9.532;2022-09-13T13:58:03;23.70;55.90
56268;DHT22;42175;46.930;9.532;2022-09-13T14:00:36;23.70;56.30
56268;DHT22;42175;46.930;9.532;2022-09-13T14:03:41;23.80;56.90
56268;DHT22;42175;46.930;9.532;2022-09-13T14:09:10;23.70;56.30
56268;DHT22;42175;46.930;9.532;2022-09-13T14:14:23;23.80;56.40
56268;DHT22;42175;46.930;9.532;2022-09-13T14:19:53;23.70;56.40
56268;DHT22;42175;46.930;9.532;2022-09-13T14:22:27;23.70;56.40
56268;DHT22;42175;46.930;9.532;2022-09-13T14:24:54;23.70;56.60
56268;DHT22;42175;46.930;9.532;2022-09-13T14:29:56;23.70;56.60
56268;DHT22;42175;46.930;9.532;2022-09-13T14:32:26;23.70;56.70
56268;DHT22;42175;46.930;9.532;2022-09-13T14:35:00;23.70;56.60
56268;DHT22;42175;46.930;9.532;2022-09-13T14:37:33;23.70;56.70
56268;DHT22;42175;46.930;9.532;2022-09-13T14:40:15;23.70;56.60
56268;DHT22;42175;46.930;9.532;2022-09-13T14:42:44;23.70;56.80
56268;DHT22;42175;46.930;9.532;2022-09-13T14:45:24;23.70;56.70
56268;DHT22;42175;46.930;9.532;2022-09-13T14:50:59;23.70;56.70
56268;DHT22;42175;46.930;9.532;2022-09-13T14:53:29;23.70;57.00
56268;DHT22;42175;46.930;9.532;2022-09-13T14:56:04;23.70;56.80
56268;DHT22;42175;46.930;9.532;2022-09-13T14:58:50;23.70;56.80
56268;DHT22;42175;46.930;9.532;2022-09-13T15:01:27;23.70;56.90
56268;DHT22;42175;46.930;9.532;2022-09-13T15:03:56;23.70;56.90
56268;DHT22;42175;46.930;9.532;2022-09-13T15:06:29;23.70;56.90
56268;DHT22;42175;46.930;9.532;2022-09-13T15:09:25;23.70;57.00
56268;DHT22;42175;46.930;9.532;2022-09-13T15:14:33;23.70;57.00
56268;DHT22;42175;46.930;9.532;2022-09-13T15:17:05;23.70;57.10
56268;DHT22;42175;46.930;9.532;2022-09-13T15:19:48;23.70;57.10
56268;DHT22;42175;46.930;9.532;2022-09-13T15:22:24;23.70;57.10
56268;DHT22;42175;46.930;9.532;2022-09-13T15:24:57;23.70;57.10
56268;DHT22;42175;46.930;9.532;2022-09-13T15:27:30;23.70;57.20
56268;DHT22;42175;46.930;9.532;2022-09-13T15:30:04;23.70;57.30
56268;DHT22;42175;46.930;9.532;2022-09-13T15:32:40;23.70;57.30
56268;DHT22;42175;46.930;9.532;2022-09-13T15:35:37;23.70;57.20
56268;DHT22;42175;46.930;9.532;2022-09-13T15:38:27;23.70;57.20
56268;DHT22;42175;46.930;9.532;2022-09-13T15:41:15;23.70;57.30
56268;DHT22;42175;46.930;9.532;2022-09-13T15:43:42;23.70;57.40
56268;DHT22;42175;46.930;9.532;2022-09-13T15:46:14;23.70;57.50
56268;DHT22;42175;46.930;9.532;2022-09-13T15:48:49;23.70;57.50
56268;DHT22;42175;46.930;9.532;2022-09-13T15:51:15;23.70;57.60
56268;DHT22;42175;46.930;9.532;2022-09-13T15:53:43;23.70;57.80
56268;DHT22;42175;46.930;9.532;2022-09-13T15:56:15;23.70;57.80
56268;DHT22;42175;46.930;9.532;2022-09-13T15:58:41;23.70;58.00
56268;DHT22;42175;46.930;9.532;2022-09-13T16:01:09;23.70;57.90
56268;DHT22;42175;46.930;9.532;2022-09-13T16:03:36;23.70;57.90
56268;DHT22;42175;46.930;9.532;2022-09-13T16:06:03;23.70;57.90
56268;DHT22;42175;46.930;9.532;2022-09-13T16:08:29;23.70;57.70
56268;DHT22;42175;46.930;9.532;2022-09-13T16:10:55;23.70;57.90
56268;DHT22;42175;46.930;9.532;2022-09-13T16:13:21;23.70;57.90
56268;DHT22;42175;46.930;9.532;2022-09-13T16:15:47;23.60;58.10
56268;DHT22;42175;46.930;9.532;2022-09-13T16:18:14;23.70;58.00
56268;DHT22;42175;46.930;9.532;2022-09-13T16:20:44;23.60;58.00
56268;DHT22;42175;46.930;9.532;2022-09-13T16:23:10;23.70;58.20
56268;DHT22;42175;46.930;9.532;2022-09-13T16:25:36;23.70;58.20
56268;DHT22;42175;46.930;9.532;2022-09-13T16:28:04;23.70;58.10
56268;DHT22;42175;46.930;9.532;2022-09-13T16:30:30;23.60;58.20
56268;DHT22;42175;46.930;9.532;2022-09-13T16:32:58;23.60;58.20
56268;DHT22;42175;46.930;9.532;2022-09-13T16:35:29;23.70;58.20
56268;DHT22;42175;46.930;9.532;2022-09-13T16:37:56;23.60;58.20
56268;DHT22;42175;46.930;9.532;2022-09-13T16:40:22;23.70;58.20
56268;DHT22;42175;46.930;9.532;2022-09-13T16:42:48;23.60;58.20
56268;DHT22;42175;46.930;9.532;2022-09-13T16:45:14;23.60;58.10
56268;DHT22;42175;46.930;9.532;2022-09-13T16:47:40;23.60;58.00
56268;DHT22;42175;46.930;9.532;2022-09-13T16:50:08;23.60;58.00
56268;DHT22;42175;46.930;9.532;2022-09-13T16:52:34;23.60;57.90
56268;DHT22;42175;46.930;9.532;2022-09-13T16:55:00;23.60;57.90
56268;DHT22;42175;46.930;9.532;2022-09-13T16:57:26;23.60;57.90
56268;DHT22;42175;46.930;9.532;2022-09-13T16:59:53;23.70;57.90
56268;DHT22;42175;46.930;9.532;2022-09-13T17:02:21;23.60;57.90
56268;DHT22;42175;46.930;9.532;2022-09-13T17:04:49;23.60;58.00
56268;DHT22;42175;46.930;9.532;2022-09-13T17:07:15;23.60;57.90
56268;DHT22;42175;46.930;9.532;2022-09-13T17:09:42;23.60;57.90
56268;DHT22;42175;46.930;9.532;2022-09-13T17:12:09;23.60;57.90
56268;DHT22;42175;46.930;9.532;2022-09-13T17:14:36;23.60;57.90
56268;DHT22;42175;46.930;9.532;2022-09-13T17:17:03;23.60;57.90
56268;DHT22;42175;46.930;9.532;2022-09-13T17:19:31;23.60;57.90
56268;DHT22;42175;46.930;9.532;2022-09-13T17:22:01;23.60;57.90
56268;DHT22;42175;46.930;9.532;2022-09-13T17:24:29;23.60;58.00
56268;DHT22;42175;46.930;9.532;2022-09-13T17:26:58;23.60;57.90
56268;DHT22;42175;46.930;9.532;2022-09-13T17:29:24;23.60;58.00
56268;DHT22;42175;46.930;9.532;2022-09-13T17:32:03;23.70;58.00
56268;DHT22;42175;46.930;9.532;2022-09-13T17:34:30;23.60;58.10
56268;DHT22;42175;46.930;9.532;2022-09-13T17:36:58;23.60;58.00
56268;DHT22;42175;46.930;9.532;2022-09-13T17:39:24;23.70;58.20
56268;DHT22;42175;46.930;9.532;2022-09-13T17:41:50;23.60;58.20
56268;DHT22;42175;46.930;9.532;2022-09-13T17:44:16;23.60;58.10
56268;DHT22;42175;46.930;9.532;2022-09-13T17:46:42;23.60;58.10
56268;DHT22;42175;46.930;9.532;2022-09-13T17:49:08;23.60;58.10
56268;DHT22;42175;46.930;9.532;2022-09-13T17:51:34;23.60;58.20
56268;DHT22;42175;46.930;9.532;2022-09-13T17:54:05;23.60;58.20
56268;DHT22;42175;46.930;9.532;2022-09-13T17:56:35;23.60;58.20
56268;DHT22;42175;46.930;9.532;2022-09-13T18:01:30;23.60;58.10
56268;DHT22;42175;46.930;9.532;2022-09-13T18:03:56;23.60;58.10
56268;DHT22;42175;46.930;9.532;2022-09-13T18:06:21;23.60;58.00
56268;DHT22;42175;46.930;9.532;2022-09-13T18:08:47;23.60;58.00
56268;DHT22;42175;46.930;9.532;2022-09-13T18:11:14;23.60;57.90
56268;DHT22;42175;46.930;9.532;2022-09-13T18:13:43;23.70;57.90
56268;DHT22;42175;46.930;9.532;2022-09-13T18:16:20;23.70;57.70
56268;DHT22;42175;46.930;9.532;2022-09-13T18:18:47;23.70;57.70
56268;DHT22;42175;46.930;9.532;2022-09-13T18:21:14;23.70;57.80
56268;DHT22;42175;46.930;9.532;2022-09-13T18:23:43;23.70;57.90
56268;DHT22;42175;46.930;9.532;2022-09-13T18:26:11;23.70;57.90
56268;DHT22;42175;46.930;9.532;2022-09-13T18:28:38;23.80;57.70
56268;DHT22;42175;46.930;9.532;2022-09-13T18:31:06;23.80;57.60
56268;DHT22;42175;46.930;9.532;2022-09-13T18:33:35;23.80;57.50
56268;DHT22;42175;46.930;9.532;2022-09-13T18:38:33;23.80;57.80
56268;DHT22;42175;46.930;9.532;2022-09-13T18:41:26;23.80;57.70
56268;DHT22;42175;46.930;9.532;2022-09-13T18:43:54;23.80;57.70
56268;DHT22;42175;46.930;9.532;2022-09-13T18:46:25;23.80;57.70
56268;DHT22;42175;46.930;9.532;2022-09-13T18:48:53;23.80;57.70
56268;DHT22;42175;46.930;9.532;2022-09-13T18:51:21;23.90;57.60
56268;DHT22;42175;46.930;9.532;2022-09-13T18:53:48;23.90;57.50